createdAt,value
2023-03-04T00:00:59.690Z,-0.53
2023-03-04T00:03:27.410Z,-0.55
2023-03-04T00:05:55.065Z,-0.54
2023-03-04T00:08:22.636Z,-0.52
2023-03-04T00:10:50.184Z,-0.54
2023-03-04T00:13:20.401Z,-0.57
2023-03-04T00:15:47.980Z,-0.56
2023-03-04T00:18:17.316Z,-0.54
2023-03-04T00:20:44.979Z,-0.52
2023-03-04T00:23:12.637Z,-0.51
2023-03-04T00:25:43.209Z,-0.48
2023-03-04T00:28:11.289Z,-0.48
2023-03-04T00:30:38.872Z,-0.45
2023-03-04T00:33:06.509Z,-0.44
2023-03-04T00:35:35.558Z,-0.42
2023-03-04T00:38:03.184Z,-0.41
2023-03-04T00:40:30.769Z,-0.38
2023-03-04T00:42:58.356Z,-0.38
2023-03-04T00:45:25.968Z,-0.38
2023-03-04T00:47:53.543Z,-0.38
2023-03-04T00:50:21.300Z,-0.41
2023-03-04T00:52:50.208Z,-0.40
2023-03-04T00:55:17.975Z,-0.42
2023-03-04T00:57:45.566Z,-0.44
2023-03-04T01:00:14.447Z,-0.44
2023-03-04T01:02:42.248Z,-0.46
2023-03-04T01:05:10.806Z,-0.46
2023-03-04T01:07:38.398Z,-0.45
2023-03-04T01:10:08.630Z,-0.44
2023-03-04T01:12:36.211Z,-0.44
2023-03-04T01:15:05.138Z,-0.45
2023-03-04T01:17:32.791Z,-0.43
2023-03-04T01:20:00.426Z,-0.43
2023-03-04T01:22:28.020Z,-0.43
2023-03-04T01:24:55.622Z,-0.46
2023-03-04T01:27:24.562Z,-0.50
2023-03-04T01:29:52.120Z,-0.51
2023-03-04T01:32:19.835Z,-0.56
2023-03-04T01:34:47.469Z,-0.63
2023-03-04T01:37:15.104Z,-0.67
2023-03-04T01:39:42.762Z,-0.69
2023-03-04T01:42:18.354Z,-0.73
2023-03-04T01:44:48.395Z,-0.72
2023-03-04T01:47:16.480Z,-0.70
2023-03-04T01:49:44.116Z,-0.72
2023-03-04T01:52:12.096Z,-0.79
2023-03-04T01:54:40.122Z,-0.77
2023-03-04T01:57:17.850Z,-0.74
2023-03-04T01:59:47.112Z,-0.69
2023-03-04T02:02:15.412Z,-0.69
2023-03-04T02:04:43.737Z,-0.68
2023-03-04T02:07:11.364Z,-0.73
2023-03-04T02:09:38.946Z,-0.71
2023-03-04T02:12:06.896Z,-0.71
2023-03-04T02:14:34.487Z,-0.75
2023-03-04T02:17:03.450Z,-0.75
2023-03-04T02:19:40.861Z,-0.73
2023-03-04T02:22:08.493Z,-0.75
2023-03-04T02:24:38.268Z,-0.76
2023-03-04T02:27:07.253Z,-0.75
2023-03-04T02:29:34.882Z,-0.73
2023-03-04T02:32:02.543Z,-0.71
2023-03-04T02:34:32.180Z,-0.73
2023-03-04T02:37:00.258Z,-0.79
2023-03-04T02:39:32.500Z,-0.77
2023-03-04T02:42:00.767Z,-0.73
2023-03-04T02:44:31.426Z,-0.69
2023-03-04T02:46:59.679Z,-0.70
2023-03-04T02:49:29.159Z,-0.73
2023-03-04T02:52:00.948Z,-0.76
2023-03-04T02:54:28.694Z,-0.80
2023-03-04T02:56:59.810Z,-0.80
2023-03-04T02:59:28.922Z,-0.83
2023-03-04T03:01:56.679Z,-0.80
2023-03-04T03:04:25.116Z,-0.78
2023-03-04T03:06:52.845Z,-0.78
2023-03-04T03:09:20.774Z,-0.78
2023-03-04T03:11:48.401Z,-0.77
2023-03-04T03:14:16.163Z,-0.79
2023-03-04T03:16:45.130Z,-0.86
2023-03-04T03:19:12.754Z,-0.93
2023-03-04T03:21:40.350Z,-0.89
2023-03-04T03:24:08.610Z,-0.86
2023-03-04T03:26:36.236Z,-0.88
2023-03-04T03:29:03.932Z,-0.87
2023-03-04T03:31:31.578Z,-0.87
2023-03-04T03:34:00.566Z,-0.85
2023-03-04T03:36:28.156Z,-0.88
2023-03-04T03:38:55.796Z,-0.88
2023-03-04T03:41:23.376Z,-0.96
2023-03-04T03:43:50.981Z,-0.95
2023-03-04T03:46:18.572Z,-0.95
2023-03-04T03:48:46.144Z,-0.91
2023-03-04T03:51:15.057Z,-0.94
2023-03-04T03:53:42.659Z,-0.95
2023-03-04T03:56:10.216Z,-0.94
2023-03-04T03:58:37.786Z,-0.94
2023-03-04T04:01:05.618Z,-0.95
2023-03-04T04:03:33.241Z,-0.95
2023-03-04T04:06:00.841Z,-0.94
2023-03-04T04:08:29.842Z,-1.04
2023-03-04T04:10:57.435Z,-1.04
2023-03-04T04:13:25.051Z,-1.01
2023-03-04T04:15:52.651Z,-1.03
2023-03-04T04:18:20.353Z,-1.05
2023-03-04T04:20:48.236Z,-1.08
2023-03-04T04:23:15.871Z,-1.10
2023-03-04T04:25:44.790Z,-1.07
2023-03-04T04:28:12.399Z,-1.12
2023-03-04T04:30:40.193Z,-1.14
2023-03-04T04:33:07.922Z,-1.19
2023-03-04T04:35:36.618Z,-1.21
2023-03-04T04:38:04.226Z,-1.21
2023-03-04T04:40:32.022Z,-1.21
2023-03-04T04:43:00.948Z,-1.23
2023-03-04T04:45:28.714Z,-1.18
2023-03-04T04:47:57.478Z,-1.17
2023-03-04T04:50:25.551Z,-1.15
2023-03-04T04:52:53.427Z,-1.16
2023-03-04T04:55:21.057Z,-1.14
2023-03-04T04:57:48.652Z,-1.15
2023-03-04T05:00:19.181Z,-1.15
2023-03-04T05:02:47.086Z,-1.13
2023-03-04T05:05:14.716Z,-1.15
2023-03-04T05:07:42.336Z,-1.15
2023-03-04T05:10:11.338Z,-1.19
2023-03-04T05:12:39.088Z,-1.21
2023-03-04T05:15:07.485Z,-1.27
2023-03-04T05:17:36.452Z,-1.25
2023-03-04T05:20:04.497Z,-1.23
2023-03-04T05:22:32.094Z,-1.29
2023-03-04T05:24:59.710Z,-1.33
2023-03-04T05:27:27.323Z,-1.34
2023-03-04T05:29:55.618Z,-1.30
2023-03-04T05:32:23.337Z,-1.29
2023-03-04T05:34:52.334Z,-1.31
2023-03-04T05:37:19.966Z,-1.32
2023-03-04T05:39:47.570Z,-1.32
2023-03-04T05:42:15.197Z,-1.33
2023-03-04T05:44:42.811Z,-1.35
2023-03-04T05:47:10.405Z,-1.39
2023-03-04T05:49:38.070Z,-1.40
2023-03-04T05:52:07.052Z,-1.44
2023-03-04T05:54:34.714Z,-1.43
2023-03-04T05:57:02.455Z,-1.43
2023-03-04T05:59:30.083Z,-1.43
2023-03-04T06:01:57.699Z,-1.44
2023-03-04T06:04:25.437Z,-1.50
2023-03-04T06:06:53.066Z,-1.50
2023-03-04T06:09:22.125Z,-1.53
2023-03-04T06:11:49.777Z,-1.56
2023-03-04T06:14:17.605Z,-1.55
2023-03-04T06:16:45.227Z,-1.54
2023-03-04T06:19:12.844Z,-1.54
2023-03-04T06:21:40.460Z,-1.54
2023-03-04T06:24:08.107Z,-1.51
2023-03-04T06:26:37.066Z,-1.50
2023-03-04T06:29:05.641Z,-1.46
2023-03-04T06:31:33.293Z,-1.45
2023-03-04T06:34:00.959Z,-1.42
2023-03-04T06:36:28.599Z,-1.37
2023-03-04T06:38:56.270Z,-1.32
2023-03-04T06:41:23.872Z,-1.27
2023-03-04T06:43:54.671Z,-1.22
2023-03-04T06:46:22.345Z,-1.18
2023-03-04T06:48:50.225Z,-1.13
2023-03-04T06:51:18.065Z,-1.09
2023-03-04T06:53:45.714Z,-1.06
2023-03-04T06:56:16.035Z,-1.04
2023-03-04T06:58:43.689Z,-1.04
2023-03-04T07:01:17.190Z,-1.03
2023-03-04T07:03:45.663Z,-0.95
2023-03-04T07:06:14.046Z,-0.89
2023-03-04T07:08:42.164Z,-0.86
2023-03-04T07:11:09.837Z,-0.80
2023-03-04T07:13:38.478Z,-0.74
2023-03-04T07:16:06.927Z,-0.67
2023-03-04T07:18:37.057Z,-0.58
2023-03-04T07:21:05.580Z,-0.46
2023-03-04T07:23:33.655Z,-0.34
2023-03-04T07:26:01.361Z,-0.23
2023-03-04T07:28:28.964Z,-0.13
2023-03-04T07:30:56.586Z,-0.06
2023-03-04T07:33:24.252Z,0.01
2023-03-04T07:36:00.797Z,0.09
2023-03-04T07:38:28.436Z,0.17
2023-03-04T07:40:57.275Z,0.24
2023-03-04T07:43:24.977Z,0.33
2023-03-04T07:45:52.699Z,0.41
2023-03-04T07:48:20.340Z,0.47
2023-03-04T07:50:47.920Z,0.59
2023-03-04T07:53:16.871Z,0.58
2023-03-04T07:55:44.546Z,0.70
2023-03-04T07:58:12.199Z,0.84
2023-03-04T08:00:41.365Z,0.98
2023-03-04T08:03:08.983Z,1.10
2023-03-04T08:05:36.687Z,1.22
2023-03-04T08:08:04.523Z,1.28
2023-03-04T08:10:33.549Z,1.35
2023-03-04T08:13:01.180Z,1.52
2023-03-04T08:15:32.821Z,1.65
2023-03-04T08:18:00.468Z,1.75
2023-03-04T08:20:28.246Z,1.85
2023-03-04T08:22:55.851Z,1.97
2023-03-04T08:25:23.499Z,2.11
2023-03-04T08:27:52.496Z,2.23
2023-03-04T08:30:20.318Z,2.30
2023-03-04T08:32:48.019Z,2.44
2023-03-04T08:35:15.697Z,2.47
2023-03-04T08:37:43.479Z,2.63
2023-03-04T08:40:12.748Z,2.80
2023-03-04T08:42:40.343Z,2.73
2023-03-04T08:45:10.655Z,2.88
2023-03-04T08:47:38.713Z,3.00
2023-03-04T08:50:08.040Z,3.13
2023-03-04T08:52:35.689Z,2.94
2023-03-04T08:55:03.340Z,2.69
2023-03-04T08:57:30.982Z,3.01
2023-03-04T08:59:58.582Z,3.21
2023-03-04T09:02:27.654Z,3.22
2023-03-04T09:04:55.263Z,3.46
2023-03-04T09:07:22.869Z,3.23
2023-03-04T09:09:50.456Z,3.43
2023-03-04T09:12:18.096Z,3.69
2023-03-04T09:14:45.742Z,3.88
2023-03-04T09:17:13.475Z,4.00
2023-03-04T09:19:42.473Z,3.87
2023-03-04T09:22:10.161Z,4.12
2023-03-04T09:24:37.785Z,4.39
2023-03-04T09:27:05.529Z,4.56
2023-03-04T09:29:33.174Z,4.79
2023-03-04T09:32:01.886Z,5.05
2023-03-04T09:34:29.634Z,4.61
2023-03-04T09:36:58.632Z,4.61
2023-03-04T09:39:26.283Z,4.70
2023-03-04T09:41:57.247Z,5.03
2023-03-04T09:44:27.506Z,5.37
2023-03-04T09:46:58.261Z,5.67
2023-03-04T09:49:26.596Z,5.96
2023-03-04T09:52:00.328Z,5.72
2023-03-04T09:54:52.078Z,5.36
2023-03-04T09:57:27.974Z,5.26
2023-03-04T10:00:02.723Z,5.70
2023-03-04T10:02:38.781Z,6.01
2023-03-04T10:05:07.536Z,5.91
2023-03-04T10:07:39.690Z,5.50
2023-03-04T10:10:08.504Z,5.91
2023-03-04T10:12:37.328Z,6.38
2023-03-04T10:15:08.664Z,6.52
2023-03-04T10:17:38.749Z,6.75
2023-03-04T10:20:09.077Z,6.19
2023-03-04T10:22:42.216Z,6.21
2023-03-04T10:25:18.054Z,6.00
2023-03-04T10:27:51.248Z,6.18
2023-03-04T10:30:24.893Z,6.37
2023-03-04T10:32:52.477Z,6.62
2023-03-04T10:35:21.748Z,6.64
2023-03-04T10:37:51.899Z,6.56
2023-03-04T10:40:22.132Z,7.04
2023-03-04T10:42:50.375Z,7.29
2023-03-04T10:45:23.291Z,7.69
2023-03-04T10:47:55.203Z,7.39
2023-03-04T10:50:24.343Z,7.64
2023-03-04T10:52:55.602Z,7.98
2023-03-04T10:55:25.140Z,7.91
2023-03-04T10:57:55.212Z,7.77
2023-03-04T11:00:31.872Z,7.57
2023-03-04T11:03:23.640Z,7.29
2023-03-04T11:05:51.607Z,6.97
2023-03-04T11:08:22.291Z,7.12
2023-03-04T11:10:52.195Z,7.77
2023-03-04T11:13:22.266Z,8.31
2023-03-04T11:15:52.573Z,8.32
2023-03-04T11:18:21.820Z,8.58
2023-03-04T11:20:50.853Z,8.02
2023-03-04T11:23:23.637Z,7.93
2023-03-04T11:25:53.981Z,8.14
2023-03-04T11:28:25.814Z,8.29
2023-03-04T11:30:56.289Z,7.79
2023-03-04T11:33:27.831Z,8.20
2023-03-04T11:36:00.321Z,8.20
2023-03-04T11:38:33.857Z,8.62
2023-03-04T11:41:04.944Z,8.36
2023-03-04T11:43:35.879Z,8.09
2023-03-04T11:46:39.632Z,7.96
2023-03-04T11:49:18.420Z,7.99
2023-03-04T11:51:50.876Z,7.76
2023-03-04T11:54:24.859Z,7.60
2023-03-04T11:56:54.529Z,8.14
2023-03-04T11:59:50.912Z,8.70
2023-03-04T12:02:20.428Z,8.98
2023-03-04T12:05:08.692Z,8.92
2023-03-04T12:07:44.756Z,9.15
2023-03-04T12:10:23.862Z,9.59
2023-03-04T12:13:03.401Z,9.63
2023-03-04T13:01:15.909Z,8.45
2023-03-04T13:03:47.146Z,8.56
2023-03-04T13:06:24.355Z,8.80
2023-03-04T13:08:59.189Z,8.88
2023-03-04T13:11:52.603Z,9.42
2023-03-04T13:14:32.210Z,9.78
2023-03-04T13:17:02.699Z,10.06
2023-03-04T13:20:12.004Z,9.65
2023-03-04T13:22:54.296Z,9.18
2023-03-04T13:25:42.325Z,9.40
2023-03-04T13:28:35.372Z,9.42
2023-03-04T13:31:12.515Z,9.11
2023-03-04T13:33:53.569Z,8.42
2023-03-04T13:36:44.825Z,8.77
2023-03-04T13:39:30.724Z,8.98
2023-03-04T13:41:59.260Z,8.23
2023-03-04T13:44:51.966Z,8.49
2023-03-04T13:47:21.473Z,7.74
2023-03-04T13:49:50.468Z,7.80
2023-03-04T13:52:48.056Z,7.32
2023-03-04T13:55:32.479Z,7.62
2023-03-04T13:58:00.159Z,7.53
2023-03-04T14:00:28.628Z,8.01
2023-03-04T14:02:56.893Z,7.80
2023-03-04T14:05:25.865Z,8.05
2023-03-04T14:07:53.464Z,8.01
2023-03-04T14:10:24.087Z,8.16
2023-03-04T14:12:53.632Z,8.32
2023-03-04T14:15:24.232Z,7.72
2023-03-04T14:17:54.001Z,7.69
2023-03-04T14:20:27.402Z,7.73
2023-03-04T14:22:55.387Z,7.49
2023-03-04T14:25:25.349Z,7.21
2023-03-04T14:28:03.629Z,7.19
2023-03-04T14:30:42.352Z,6.99
2023-03-04T14:33:17.368Z,7.09
2023-03-04T14:35:49.508Z,7.21
2023-03-04T14:38:17.960Z,7.30
2023-03-04T14:40:47.474Z,7.28
2023-03-04T14:43:17.386Z,7.20
2023-03-04T14:45:46.631Z,7.12
2023-03-04T14:48:26.170Z,7.06
2023-03-04T14:50:56.375Z,6.99
2023-03-04T14:53:25.270Z,6.91
2023-03-04T14:55:57.767Z,6.75
2023-03-04T14:58:27.427Z,6.71
2023-03-04T15:01:15.335Z,6.43
2023-03-04T15:03:44.383Z,6.28
2023-03-04T15:06:19.996Z,6.35
2023-03-04T15:08:48.068Z,6.39
2023-03-04T15:11:23.291Z,5.66
2023-03-04T15:13:53.490Z,5.75
2023-03-04T15:16:23.763Z,5.85
2023-03-04T15:19:03.265Z,5.94
2023-03-04T15:21:36.705Z,6.01
2023-03-04T15:24:05.231Z,6.00
2023-03-04T15:26:33.999Z,5.99
2023-03-04T15:29:01.679Z,5.78
2023-03-04T15:31:30.016Z,5.93
2023-03-04T15:33:57.587Z,5.97
2023-03-04T15:36:25.449Z,5.54
2023-03-04T15:38:54.644Z,5.35
2023-03-04T15:41:24.308Z,5.00
2023-03-04T15:43:52.258Z,5.03
2023-03-04T15:46:20.244Z,4.55
2023-03-04T15:48:48.570Z,4.55
2023-03-04T15:51:18.240Z,4.54
2023-03-04T15:53:48.286Z,4.36
2023-03-04T15:56:18.879Z,4.27
2023-03-04T15:58:48.099Z,4.34
2023-03-04T16:01:17.432Z,4.11
2023-03-04T16:03:45.079Z,4.24
2023-03-04T16:06:13.535Z,3.96
2023-03-04T16:08:42.095Z,3.91
2023-03-04T16:11:13.271Z,4.21
2023-03-04T16:13:42.198Z,4.20
2023-03-04T16:16:12.003Z,4.21
2023-03-04T16:18:40.422Z,4.24
2023-03-04T16:21:08.554Z,4.34
2023-03-04T16:23:39.786Z,4.20
2023-03-04T16:26:13.407Z,3.84
2023-03-04T16:28:42.473Z,3.58
2023-03-04T16:31:12.115Z,3.68
2023-03-04T16:33:39.916Z,3.39
2023-03-04T16:36:13.546Z,3.38
2023-03-04T16:38:41.258Z,2.94
2023-03-04T16:41:13.009Z,2.83
2023-03-04T16:43:42.866Z,2.35
2023-03-04T16:46:13.746Z,2.51
2023-03-04T16:48:41.706Z,2.65
2023-03-04T16:51:14.132Z,2.02
2023-03-04T16:53:43.405Z,2.04
2023-03-04T16:56:14.442Z,2.12
2023-03-04T16:58:44.070Z,2.03
2023-03-04T17:01:15.810Z,1.78
2023-03-04T17:03:43.578Z,1.87
2023-03-04T17:06:11.488Z,1.86
2023-03-04T17:08:39.155Z,1.78
2023-03-04T17:11:06.892Z,1.67
2023-03-04T17:13:34.673Z,1.61
2023-03-04T17:16:04.059Z,1.24
2023-03-04T17:18:31.727Z,1.36
2023-03-04T17:21:03.451Z,1.24
2023-03-04T17:23:31.076Z,1.20
2023-03-04T17:25:59.485Z,1.28
2023-03-04T17:28:28.042Z,1.11
2023-03-04T17:30:55.660Z,0.85
2023-03-04T17:33:24.616Z,0.59
2023-03-04T17:35:52.306Z,0.54
2023-03-04T17:38:20.002Z,0.67
2023-03-04T17:40:47.623Z,0.89
2023-03-04T17:43:15.306Z,0.87
2023-03-04T17:45:43.308Z,0.85
2023-03-04T17:48:14.969Z,0.73
2023-03-04T17:50:50.552Z,0.66
2023-03-04T17:53:18.484Z,0.70
2023-03-04T17:55:50.323Z,0.86
2023-03-04T17:58:17.919Z,1.00
2023-03-04T18:00:45.629Z,0.95
2023-03-04T18:03:16.269Z,1.01
2023-03-04T18:05:44.006Z,0.90
2023-03-04T18:08:12.955Z,0.84
2023-03-04T18:10:40.512Z,0.77
2023-03-04T18:13:08.570Z,0.87
2023-03-04T18:15:36.223Z,0.81
2023-03-04T18:18:04.889Z,0.73
2023-03-04T18:20:32.729Z,0.66
2023-03-04T18:23:00.857Z,0.45
2023-03-04T18:25:29.808Z,0.44
2023-03-04T18:27:57.628Z,0.34
2023-03-04T18:30:27.356Z,0.26
2023-03-04T18:32:55.622Z,0.13
2023-03-04T18:35:23.750Z,0.11
2023-03-04T18:37:51.444Z,0.14
2023-03-04T18:40:19.443Z,0.00
2023-03-04T18:42:48.636Z,0.22
2023-03-04T18:45:17.104Z,0.04
2023-03-04T18:47:47.519Z,0.03
2023-03-04T18:50:15.344Z,-0.06
2023-03-04T18:52:42.982Z,0.17
2023-03-04T18:55:12.998Z,0.28
2023-03-04T18:57:42.177Z,0.14
2023-03-04T19:00:12.757Z,0.11
2023-03-04T19:02:42.552Z,0.20
2023-03-04T19:05:13.380Z,0.10
2023-03-04T19:07:41.048Z,0.02
2023-03-04T19:10:09.532Z,0.04
2023-03-04T19:12:37.136Z,0.04
2023-03-04T19:15:06.043Z,0.05
2023-03-04T19:17:35.864Z,0.16
2023-03-04T19:20:03.828Z,0.26
2023-03-04T19:22:31.593Z,0.12
2023-03-04T19:24:59.205Z,0.04
2023-03-04T19:27:26.933Z,-0.02
2023-03-04T19:29:54.522Z,0.13
2023-03-04T19:32:22.165Z,0.26
2023-03-04T19:34:51.036Z,0.18
2023-03-04T19:37:18.824Z,0.25
2023-03-04T19:39:46.508Z,0.14
2023-03-04T19:42:14.942Z,0.06
2023-03-04T19:44:44.774Z,0.10
2023-03-04T19:47:12.646Z,0.20
2023-03-04T19:49:40.237Z,0.13
2023-03-04T19:52:09.188Z,-0.22
2023-03-04T19:54:36.857Z,-0.09
2023-03-04T19:57:04.574Z,-0.27
2023-03-04T19:59:32.192Z,-0.25
2023-03-04T20:02:01.320Z,-0.05
2023-03-04T20:04:28.960Z,-0.07
2023-03-04T20:06:56.584Z,-0.07
2023-03-04T20:09:25.535Z,0.02
2023-03-04T20:12:00.189Z,0.07
2023-03-04T20:14:28.484Z,0.14
2023-03-04T20:17:00.593Z,0.10
2023-03-04T20:19:28.444Z,0.05
2023-03-04T20:21:56.320Z,0.12
2023-03-04T20:24:25.772Z,0.13
2023-03-04T20:26:53.466Z,0.22
2023-03-04T20:29:21.086Z,0.26
2023-03-04T20:31:49.092Z,0.25
2023-03-04T20:34:16.731Z,0.38
2023-03-04T20:36:44.346Z,0.25
2023-03-04T20:39:27.489Z,0.28
2023-03-04T20:41:57.549Z,0.38
2023-03-04T20:44:25.281Z,0.44
2023-03-04T20:46:53.025Z,0.35
2023-03-04T20:49:23.949Z,0.39
2023-03-04T20:51:52.108Z,0.47
2023-03-04T20:54:20.112Z,0.53
2023-03-04T20:56:49.402Z,0.41
2023-03-04T20:59:18.883Z,0.36
2023-03-04T21:01:47.918Z,0.45
2023-03-04T21:04:15.982Z,0.51
2023-03-04T21:06:45.006Z,0.52
2023-03-04T21:09:14.785Z,0.58
2023-03-04T21:11:43.146Z,0.65
2023-03-04T21:14:14.109Z,0.67
2023-03-04T21:16:43.720Z,0.66
2023-03-04T21:19:15.088Z,0.61
2023-03-04T21:21:42.742Z,0.52
2023-03-04T21:24:12.637Z,0.60
2023-03-04T21:26:40.239Z,0.42
2023-03-04T21:29:07.932Z,0.50
2023-03-04T21:31:40.448Z,0.58
2023-03-04T21:34:13.757Z,0.47
2023-03-04T21:36:41.362Z,0.26
2023-03-04T21:39:08.995Z,0.17
2023-03-04T21:41:36.690Z,0.27
2023-03-04T21:44:04.300Z,0.36
2023-03-04T21:46:32.079Z,0.25
2023-03-04T21:48:59.713Z,0.29
2023-03-04T21:51:28.726Z,0.36
2023-03-04T21:53:56.395Z,0.45
2023-03-04T21:56:24.035Z,0.47
2023-03-04T21:58:51.620Z,0.48
2023-03-04T22:01:21.525Z,0.44
2023-03-04T22:03:51.407Z,0.47
2023-03-04T22:06:22.626Z,0.39
2023-03-04T22:08:52.706Z,0.40
2023-03-04T22:11:21.266Z,0.28
2023-03-04T22:13:50.536Z,0.26
2023-03-04T22:16:18.252Z,0.22
2023-03-04T22:18:45.890Z,0.17
2023-03-04T22:21:15.060Z,0.16
2023-03-04T22:23:42.844Z,0.08
2023-03-04T22:26:13.940Z,0.01
2023-03-04T22:28:42.009Z,0.03
2023-03-04T22:31:15.250Z,0.07
2023-03-04T22:33:43.869Z,-0.03
2023-03-04T22:36:11.869Z,-0.07
2023-03-04T22:38:39.968Z,-0.11
2023-03-04T22:41:15.019Z,-0.06
2023-03-04T22:43:42.734Z,-0.17
2023-03-04T22:46:14.589Z,-0.12
2023-03-04T22:48:42.258Z,-0.09
2023-03-04T22:51:10.929Z,-0.05
2023-03-04T22:53:38.853Z,-0.09
2023-03-04T22:56:06.591Z,-0.07
2023-03-04T22:58:35.550Z,-0.09
2023-03-04T23:01:04.589Z,-0.08
2023-03-04T23:03:32.245Z,-0.06
2023-03-04T23:06:04.814Z,-0.02
2023-03-04T23:08:32.385Z,0.04
2023-03-04T23:10:59.984Z,0.04
2023-03-04T23:13:27.569Z,0.01
2023-03-04T23:15:56.464Z,0.00
2023-03-04T23:18:24.062Z,-0.02
2023-03-04T23:20:51.647Z,-0.05
2023-03-04T23:23:19.275Z,-0.07
2023-03-04T23:25:49.206Z,-0.11
2023-03-04T23:28:16.820Z,-0.14
2023-03-04T23:30:44.437Z,-0.09
2023-03-04T23:33:13.400Z,-0.04
2023-03-04T23:35:41.011Z,0.00
2023-03-04T23:38:08.737Z,0.03
2023-03-04T23:40:36.396Z,0.04
2023-03-04T23:43:03.993Z,0.04
2023-03-04T23:45:33.312Z,0.05
2023-03-04T23:48:00.901Z,0.10
2023-03-04T23:50:32.130Z,0.10
2023-03-04T23:52:59.716Z,0.15
2023-03-04T23:55:28.360Z,0.18
2023-03-04T23:57:55.910Z,0.17
